Scout — WCZ2046 — position and weather

sailwx.info

Track history (hours):
 
Tides and Currents Weather Stations Pressure Air Temp Water Temp Dewpoint Dewpoint Depression Visibility Wind Speed Wind Dir Waves Ship Positions

Scout

Owner: CROWLEY MARINE SERVICES INC, SEATTLE, WA. More information available from US FCC via Universal Licensing System and Coast Guard Vessel Documentation Center.

Last reported at 2014-Nov-29 03:33 UTC. Time now 2014-Nov-29 03:41 UTC.
Position N 33°44' W 118°17'.

; draft 5.6 m.

Type: Tug. MMSI: 366764730.

Date/timePositionNaut miles runAvg speedWind from/ knotsBaromVisibWave heightAir tempDewpointWater temp
2014-Nov-29 03:33N 33°44' W 118°17'2 1.7
2014-Nov-29 02:33N 33°43' W 118°16'3 3.0
2014-Nov-29 01:33N 33°44' W 118°12'4 3.6
2014-Nov-29 00:33N 33°44' W 118°17'0 0.0
2014-Nov-28 23:33N 33°44' W 118°17'0 0.0
2014-Nov-28 22:33N 33°44' W 118°17'0 0.0
2014-Nov-28 21:34N 33°44' W 118°17'0 0.0
2014-Nov-28 20:33N 33°44' W 118°17'0 0.0
2014-Nov-28 19:33N 33°44' W 118°17'0 0.0
2014-Nov-28 18:33N 33°44' W 118°17'0 0.0
2014-Nov-28 17:33N 33°44' W 118°17'0 0.0
2014-Nov-28 16:33N 33°44' W 118°17'1 1.1
2014-Nov-28 15:34N 33°45' W 118°16'2 2.5
2014-Nov-28 14:34N 33°43' W 118°15'4 3.9
2014-Nov-28 13:33N 33°44' W 118°11'2 1.9
2014-Nov-28 12:33N 33°45' W 118°12'2 1.9
2014-Nov-28 11:33N 33°44' W 118°10'5 5.3
2014-Nov-28 10:33N 33°44' W 118°17'0 0.0
2014-Nov-28 09:33N 33°44' W 118°17'0 0.0
2014-Nov-28 08:33N 33°44' W 118°17'0 0.0
2014-Nov-28 07:33N 33°44' W 118°17'0 0.0
2014-Nov-28 06:33N 33°44' W 118°17'0 0.0
2014-Nov-28 05:33N 33°44' W 118°17'0 0.0
2014-Nov-28 04:34N 33°44' W 118°17'0 0.0
2014-Nov-28 03:33N 33°44' W 118°17'0 0.0
2014-Nov-28 02:33N 33°44' W 118°17'0 0.0
2014-Nov-27 21:27N 33°44' W 118°17'1 1.4
2014-Nov-27 20:33N 33°45' W 118°16'0 0.3
2014-Nov-27 19:33N 33°45' W 118°16'1 1.0
2014-Nov-27 18:30N 33°44' W 118°17'0 0.0
2014-Nov-27 17:33N 33°44' W 118°17'0 0.0
2014-Nov-27 16:33N 33°44' W 118°17'0 0.0
2014-Nov-27 15:33N 33°44' W 118°17'0 0.0
2014-Nov-27 14:33N 33°44' W 118°17'0 0.0
2014-Nov-27 13:33N 33°44' W 118°17'0 0.0
2014-Nov-27 12:33N 33°44' W 118°17'0 0.0
2014-Nov-27 11:33N 33°44' W 118°17'0 0.0
2014-Nov-27 10:33N 33°44' W 118°17'0 0.0
2014-Nov-27 09:33N 33°44' W 118°17'0 0.0
2014-Nov-27 08:33N 33°44' W 118°17'0 0.0
2014-Nov-27 07:33N 33°44' W 118°17'0 0.0
2014-Nov-27 06:33N 33°44' W 118°17'0 0.0
2014-Nov-27 05:33N 33°44' W 118°17'0 0.0
2014-Nov-27 04:32N 33°44' W 118°17'0 0.0
2014-Nov-27 03:33N 33°44' W 118°17'0 0.0
2014-Nov-27 02:19N 33°44' W 118°17'2 2.0
2014-Nov-27 01:32N 33°46' W 118°16'1 1.1
2014-Nov-27 00:33N 33°45' W 118°16'3 2.9
2014-Nov-26 23:33N 33°45' W 118°13'0 0.0
2014-Nov-26 22:34N 33°45' W 118°13'0 0.0
2014-Nov-26 21:33N 33°45' W 118°13'0 0.3
2014-Nov-26 20:33N 33°45' W 118°13'0 0.3
2014-Nov-26 19:33N 33°45' W 118°13'3 3.1
2014-Nov-26 18:33N 33°44' W 118°17'0 0.0
2014-Nov-26 17:33N 33°44' W 118°17'0 0.0
2014-Nov-26 16:33N 33°44' W 118°17'0 0.0
2014-Nov-26 15:33N 33°44' W 118°17'0 0.0
2014-Nov-26 14:33N 33°44' W 118°17'0 0.0
2014-Nov-26 13:33N 33°44' W 118°17'0 0.0
2014-Nov-26 12:33N 33°44' W 118°17'1 0.8
2014-Nov-26 11:33N 33°45' W 118°16'2 2.2
2014-Nov-26 10:33N 33°43' W 118°15'2 1.8
2014-Nov-26 09:33N 33°44' W 118°13'3 2.8
2014-Nov-26 08:32N 33°44' W 118°17'0 0.0
2014-Nov-26 07:33N 33°44' W 118°17'0 0.0
2014-Nov-26 06:31N 33°44' W 118°17'0 0.0
2014-Nov-26 05:33N 33°44' W 118°17'0 0.0
2014-Nov-26 04:32N 33°44' W 118°17'0 0.0
2014-Nov-26 03:31N 33°44' W 118°17'0 0.0
2014-Nov-26 01:32N 33°44' W 118°17'0 0.0
2014-Nov-26 00:27N 33°44' W 118°17'0 0.0
2014-Nov-25 23:29N 33°44' W 118°17'0 0.0
2014-Nov-25 18:26N 33°44' W 118°17'0 0.0
2014-Nov-25 17:25N 33°44' W 118°17'3 0.7
2014-Nov-25 13:33N 33°46' W 118°14'1 1.1
2014-Nov-25 12:34N 33°45' W 118°13'3 0.7
2014-Nov-25 08:33N 33°45' W 118°16'1 0.2
2014-Nov-25 03:33N 33°46' W 118°16'1 0.4
2014-Nov-25 01:30N 33°45' W 118°16'0 0.1
2014-Nov-25 00:33N 33°45' W 118°16'0 0.5
2014-Nov-24 23:33N 33°46' W 118°17'3 3.4
2014-Nov-24 22:33N 33°43' W 118°15'2 2.2
2014-Nov-24 21:28N 33°44' W 118°17'0 0.0
2014-Nov-24 18:30N 33°44' W 118°17'0 0.0
2014-Nov-24 17:27N 33°44' W 118°17'0 0.0
2014-Nov-24 16:33N 33°44' W 118°17'2 1.6
2014-Nov-24 15:33N 33°46' W 118°16'1 0.8
2014-Nov-24 14:33N 33°45' W 118°16'3 3.2
2014-Nov-24 13:33N 33°44' W 118°13'2 2.1
2014-Nov-24 12:33N 33°44' W 118°10'1 0.7
2014-Nov-24 11:33N 33°44' W 118°11'2 1.5
2014-Nov-24 10:17N 33°45' W 118°13'2 2.4
2014-Nov-24 09:33N 33°43' W 118°14'2 1.6
2014-Nov-24 08:29N 33°45' W 118°13'1 0.8
2014-Nov-24 07:33N 33°44' W 118°12'2 1.6
2014-Nov-24 06:30N 33°43' W 118°14'3 1.2
2014-Nov-24 04:12N 33°44' W 118°17'0 0.0
2014-Nov-24 01:24N 33°44' W 118°17'1 1.4
2014-Nov-24 00:33N 33°46' W 118°16'4 3.5
2014-Nov-23 23:31N 33°42' W 118°15'1 0.8
2014-Nov-23 22:33N 33°41' W 118°14'4 3.6
2014-Nov-23 21:33N 33°44' W 118°17'0 0.0
2014-Nov-23 20:33N 33°44' W 118°17'0 0.0
2014-Nov-23 19:19N 33°44' W 118°17'0 0.0
2014-Nov-23 18:22N 33°44' W 118°17'0 0.0
2014-Nov-23 17:33N 33°44' W 118°17'1 0.2
2014-Nov-23 14:20N 33°45' W 118°16'2 2.1
2014-Nov-23 13:33N 33°46' W 118°15'1 0.8
2014-Nov-23 12:33N 33°46' W 118°16'2 0.2
2014-Nov-23 05:15N 33°44' W 118°17'0 0.0
2014-Nov-23 03:33N 33°44' W 118°17'0 0.0
2014-Nov-23 01:33N 33°44' W 118°17'0 0.0
2014-Nov-23 00:30N 33°44' W 118°17'0 0.0
2014-Nov-22 23:33N 33°44' W 118°17'0 0.0
2014-Nov-22 22:33N 33°44' W 118°17'0 0.0
2014-Nov-22 21:33N 33°44' W 118°17'0 0.0
2014-Nov-22 20:28N 33°44' W 118°17'0 0.2
2014-Nov-22 18:33N 33°45' W 118°16'0 0.3
2014-Nov-22 17:33N 33°45' W 118°16'1 0.3
2014-Nov-22 12:11N 33°44' W 118°16'1 0.2
2014-Nov-22 06:30N 33°44' W 118°17'1 0.2
2014-Nov-22 01:32N 33°45' W 118°16'1 0.6
2014-Nov-22 00:33N 33°46' W 118°15'3 0.5
2014-Nov-21 18:21N 33°43' W 118°15'3 3.9
2014-Nov-21 17:33N 33°45' W 118°13'1 1.0
2014-Nov-21 16:33N 33°46' W 118°13'0 0.0
2014-Nov-21 15:33N 33°46' W 118°13'1 1.2
2014-Nov-21 14:33N 33°45' W 118°13'2 2.0
2014-Nov-21 13:33N 33°44' W 118°12'3 3.3
2014-Nov-21 12:33N 33°43' W 118°15'1 1.1
2014-Nov-21 11:32N 33°44' W 118°15'1 1.1
2014-Nov-21 10:29N 33°44' W 118°17'1 0.2
2014-Nov-21 03:33N 33°44' W 118°15'2 0.3
2014-Nov-20 22:32N 33°44' W 118°17'0 0.0
2014-Nov-20 18:28N 33°44' W 118°17'0 0.0
2014-Nov-20 17:11N 33°44' W 118°17'0 0.0
2014-Nov-20 15:33N 33°44' W 118°17'1 0.4
2014-Nov-20 12:33N 33°44' W 118°15'0 0.0
2014-Nov-20 11:33N 33°44' W 118°15'1 0.3
2014-Nov-20 07:31N 33°44' W 118°17'0 0.0
2014-Nov-20 06:33N 33°44' W 118°17'0 0.0
2014-Nov-20 05:27N 33°44' W 118°17'0 0.0
2014-Nov-20 04:33N 33°44' W 118°17'0 0.0
2014-Nov-20 03:33N 33°44' W 118°17'0 0.0
2014-Nov-20 02:33N 33°44' W 118°17'1 0.6
2014-Nov-20 01:33N 33°44' W 118°16'2 1.6
2014-Nov-20 00:34N 33°45' W 118°16'2 1.5
2014-Nov-19 23:33N 33°44' W 118°15'1 0.9
2014-Nov-19 22:33N 33°43' W 118°16'1 1.2
2014-Nov-19 21:33N 33°44' W 118°17'0 0.0
2014-Nov-19 20:33N 33°44' W 118°17'0 0.0
2014-Nov-19 17:33N 33°44' W 118°17'0 0.0
2014-Nov-19 15:10N 33°44' W 118°17'3 4.7
2014-Nov-19 14:31N 33°45' W 118°13'1 1.4
2014-Nov-19 13:32N 33°46' W 118°13'3 2.4
2014-Nov-19 12:15N 33°44' W 118°12'4 6.1
2014-Nov-19 11:33N 33°44' W 118°17'0 0.3
2014-Nov-19 10:33N 33°44' W 118°17'0 0.0
2014-Nov-19 09:33N 33°44' W 118°17'0 0.0
2014-Nov-19 08:33N 33°44' W 118°17'0 0.3
2014-Nov-19 07:33N 33°44' W 118°17'3 3.5
2014-Nov-19 06:34N 33°46' W 118°13'0 0.0
2014-Nov-19 05:33N 33°46' W 118°13'1 0.5
2014-Nov-19 04:33N 33°46' W 118°13'3 3.0
2014-Nov-19 03:33N 33°44' W 118°11'  
Track history (hours):
 
Tides and Currents Weather Stations Pressure Air Temp Water Temp Dewpoint Dewpoint Depression Visibility Wind Speed Wind Dir Waves Ship Positions

Scout

Owner: CROWLEY MARINE SERVICES INC, SEATTLE, WA. More information available from US FCC via Universal Licensing System and Coast Guard Vessel Documentation Center.

Last reported at 2014-Nov-29 03:33 UTC. Time now 2014-Nov-29 03:41 UTC.
Position N 33°44' W 118°17'.

; draft 5.6 m.

Type: Tug. MMSI: 366764730.

Date/timePositionNaut miles runAvg speedWind from/ knotsBaromVisibWave heightAir tempDewpointWater temp
2014-Nov-29 03:33N 33°44' W 118°17'2 1.7
2014-Nov-29 02:33N 33°43' W 118°16'3 3.0
2014-Nov-29 01:33N 33°44' W 118°12'4 3.6
2014-Nov-29 00:33N 33°44' W 118°17'0 0.0
2014-Nov-28 23:33N 33°44' W 118°17'0 0.0
2014-Nov-28 22:33N 33°44' W 118°17'0 0.0
2014-Nov-28 21:34N 33°44' W 118°17'0 0.0
2014-Nov-28 20:33N 33°44' W 118°17'0 0.0
2014-Nov-28 19:33N 33°44' W 118°17'0 0.0
2014-Nov-28 18:33N 33°44' W 118°17'0 0.0
2014-Nov-28 17:33N 33°44' W 118°17'0 0.0
2014-Nov-28 16:33N 33°44' W 118°17'1 1.1
2014-Nov-28 15:34N 33°45' W 118°16'2 2.5
2014-Nov-28 14:34N 33°43' W 118°15'4 3.9
2014-Nov-28 13:33N 33°44' W 118°11'2 1.9
2014-Nov-28 12:33N 33°45' W 118°12'2 1.9
2014-Nov-28 11:33N 33°44' W 118°10'5 5.3
2014-Nov-28 10:33N 33°44' W 118°17'0 0.0
2014-Nov-28 09:33N 33°44' W 118°17'0 0.0
2014-Nov-28 08:33N 33°44' W 118°17'0 0.0
2014-Nov-28 07:33N 33°44' W 118°17'0 0.0
2014-Nov-28 06:33N 33°44' W 118°17'0 0.0
2014-Nov-28 05:33N 33°44' W 118°17'0 0.0
2014-Nov-28 04:34N 33°44' W 118°17'0 0.0
2014-Nov-28 03:33N 33°44' W 118°17'0 0.0
2014-Nov-28 02:33N 33°44' W 118°17'0 0.0
2014-Nov-27 21:27N 33°44' W 118°17'1 1.4
2014-Nov-27 20:33N 33°45' W 118°16'0 0.3
2014-Nov-27 19:33N 33°45' W 118°16'1 1.0
2014-Nov-27 18:30N 33°44' W 118°17'0 0.0
2014-Nov-27 17:33N 33°44' W 118°17'0 0.0
2014-Nov-27 16:33N 33°44' W 118°17'0 0.0
2014-Nov-27 15:33N 33°44' W 118°17'0 0.0
2014-Nov-27 14:33N 33°44' W 118°17'0 0.0
2014-Nov-27 13:33N 33°44' W 118°17'0 0.0
2014-Nov-27 12:33N 33°44' W 118°17'0 0.0
2014-Nov-27 11:33N 33°44' W 118°17'0 0.0
2014-Nov-27 10:33N 33°44' W 118°17'0 0.0
2014-Nov-27 09:33N 33°44' W 118°17'0 0.0
2014-Nov-27 08:33N 33°44' W 118°17'0 0.0
2014-Nov-27 07:33N 33°44' W 118°17'0 0.0
2014-Nov-27 06:33N 33°44' W 118°17'0 0.0
2014-Nov-27 05:33N 33°44' W 118°17'0 0.0
2014-Nov-27 04:32N 33°44' W 118°17'0 0.0
2014-Nov-27 03:33N 33°44' W 118°17'0 0.0
2014-Nov-27 02:19N 33°44' W 118°17'2 2.0
2014-Nov-27 01:32N 33°46' W 118°16'1 1.1
2014-Nov-27 00:33N 33°45' W 118°16'3 2.9
2014-Nov-26 23:33N 33°45' W 118°13'0 0.0
2014-Nov-26 22:34N 33°45' W 118°13'0 0.0
2014-Nov-26 21:33N 33°45' W 118°13'0 0.3
2014-Nov-26 20:33N 33°45' W 118°13'0 0.3
2014-Nov-26 19:33N 33°45' W 118°13'3 3.1
2014-Nov-26 18:33N 33°44' W 118°17'0 0.0
2014-Nov-26 17:33N 33°44' W 118°17'0 0.0
2014-Nov-26 16:33N 33°44' W 118°17'0 0.0
2014-Nov-26 15:33N 33°44' W 118°17'0 0.0
2014-Nov-26 14:33N 33°44' W 118°17'0 0.0
2014-Nov-26 13:33N 33°44' W 118°17'0 0.0
2014-Nov-26 12:33N 33°44' W 118°17'1 0.8
2014-Nov-26 11:33N 33°45' W 118°16'2 2.2
2014-Nov-26 10:33N 33°43' W 118°15'2 1.8
2014-Nov-26 09:33N 33°44' W 118°13'3 2.8
2014-Nov-26 08:32N 33°44' W 118°17'0 0.0
2014-Nov-26 07:33N 33°44' W 118°17'0 0.0
2014-Nov-26 06:31N 33°44' W 118°17'0 0.0
2014-Nov-26 05:33N 33°44' W 118°17'0 0.0
2014-Nov-26 04:32N 33°44' W 118°17'0 0.0
2014-Nov-26 03:31N 33°44' W 118°17'0 0.0
2014-Nov-26 01:32N 33°44' W 118°17'0 0.0
2014-Nov-26 00:27N 33°44' W 118°17'0 0.0
2014-Nov-25 23:29N 33°44' W 118°17'0 0.0
2014-Nov-25 18:26N 33°44' W 118°17'0 0.0
2014-Nov-25 17:25N 33°44' W 118°17'3 0.7
2014-Nov-25 13:33N 33°46' W 118°14'1 1.1
2014-Nov-25 12:34N 33°45' W 118°13'3 0.7
2014-Nov-25 08:33N 33°45' W 118°16'1 0.2
2014-Nov-25 03:33N 33°46' W 118°16'1 0.4
2014-Nov-25 01:30N 33°45' W 118°16'0 0.1
2014-Nov-25 00:33N 33°45' W 118°16'0 0.5
2014-Nov-24 23:33N 33°46' W 118°17'3 3.4
2014-Nov-24 22:33N 33°43' W 118°15'2 2.2
2014-Nov-24 21:28N 33°44' W 118°17'0 0.0
2014-Nov-24 18:30N 33°44' W 118°17'0 0.0
2014-Nov-24 17:27N 33°44' W 118°17'0 0.0
2014-Nov-24 16:33N 33°44' W 118°17'2 1.6
2014-Nov-24 15:33N 33°46' W 118°16'1 0.8
2014-Nov-24 14:33N 33°45' W 118°16'3 3.2
2014-Nov-24 13:33N 33°44' W 118°13'2 2.1
2014-Nov-24 12:33N 33°44' W 118°10'1 0.7
2014-Nov-24 11:33N 33°44' W 118°11'2 1.5
2014-Nov-24 10:17N 33°45' W 118°13'2 2.4
2014-Nov-24 09:33N 33°43' W 118°14'2 1.6
2014-Nov-24 08:29N 33°45' W 118°13'1 0.8
2014-Nov-24 07:33N 33°44' W 118°12'2 1.6
2014-Nov-24 06:30N 33°43' W 118°14'3 1.2
2014-Nov-24 04:12N 33°44' W 118°17'0 0.0
2014-Nov-24 01:24N 33°44' W 118°17'1 1.4
2014-Nov-24 00:33N 33°46' W 118°16'4 3.5
2014-Nov-23 23:31N 33°42' W 118°15'1 0.8
2014-Nov-23 22:33N 33°41' W 118°14'4 3.6
2014-Nov-23 21:33N 33°44' W 118°17'0 0.0
2014-Nov-23 20:33N 33°44' W 118°17'0 0.0
2014-Nov-23 19:19N 33°44' W 118°17'0 0.0
2014-Nov-23 18:22N 33°44' W 118°17'0 0.0
2014-Nov-23 17:33N 33°44' W 118°17'1 0.2
2014-Nov-23 14:20N 33°45' W 118°16'2 2.1
2014-Nov-23 13:33N 33°46' W 118°15'1 0.8
2014-Nov-23 12:33N 33°46' W 118°16'2 0.2
2014-Nov-23 05:15N 33°44' W 118°17'0 0.0
2014-Nov-23 03:33N 33°44' W 118°17'0 0.0
2014-Nov-23 01:33N 33°44' W 118°17'0 0.0
2014-Nov-23 00:30N 33°44' W 118°17'0 0.0
2014-Nov-22 23:33N 33°44' W 118°17'0 0.0
2014-Nov-22 22:33N 33°44' W 118°17'0 0.0
2014-Nov-22 21:33N 33°44' W 118°17'0 0.0
2014-Nov-22 20:28N 33°44' W 118°17'0 0.2
2014-Nov-22 18:33N 33°45' W 118°16'0 0.3
2014-Nov-22 17:33N 33°45' W 118°16'1 0.3
2014-Nov-22 12:11N 33°44' W 118°16'1 0.2
2014-Nov-22 06:30N 33°44' W 118°17'1 0.2
2014-Nov-22 01:32N 33°45' W 118°16'1 0.6
2014-Nov-22 00:33N 33°46' W 118°15'3 0.5
2014-Nov-21 18:21N 33°43' W 118°15'3 3.9
2014-Nov-21 17:33N 33°45' W 118°13'1 1.0
2014-Nov-21 16:33N 33°46' W 118°13'0 0.0
2014-Nov-21 15:33N 33°46' W 118°13'1 1.2
2014-Nov-21 14:33N 33°45' W 118°13'2 2.0
2014-Nov-21 13:33N 33°44' W 118°12'3 3.3
2014-Nov-21 12:33N 33°43' W 118°15'1 1.1
2014-Nov-21 11:32N 33°44' W 118°15'1 1.1
2014-Nov-21 10:29N 33°44' W 118°17'1 0.2
2014-Nov-21 03:33N 33°44' W 118°15'2 0.3
2014-Nov-20 22:32N 33°44' W 118°17'0 0.0
2014-Nov-20 18:28N 33°44' W 118°17'0 0.0
2014-Nov-20 17:11N 33°44' W 118°17'0 0.0
2014-Nov-20 15:33N 33°44' W 118°17'1 0.4
2014-Nov-20 12:33N 33°44' W 118°15'0 0.0
2014-Nov-20 11:33N 33°44' W 118°15'1 0.3
2014-Nov-20 07:31N 33°44' W 118°17'0 0.0
2014-Nov-20 06:33N 33°44' W 118°17'0 0.0
2014-Nov-20 05:27N 33°44' W 118°17'0 0.0
2014-Nov-20 04:33N 33°44' W 118°17'0 0.0
2014-Nov-20 03:33N 33°44' W 118°17'0 0.0
2014-Nov-20 02:33N 33°44' W 118°17'1 0.6
2014-Nov-20 01:33N 33°44' W 118°16'2 1.6
2014-Nov-20 00:34N 33°45' W 118°16'2 1.5
2014-Nov-19 23:33N 33°44' W 118°15'1 0.9
2014-Nov-19 22:33N 33°43' W 118°16'1 1.2
2014-Nov-19 21:33N 33°44' W 118°17'0 0.0
2014-Nov-19 20:33N 33°44' W 118°17'0 0.0
2014-Nov-19 17:33N 33°44' W 118°17'0 0.0
2014-Nov-19 15:10N 33°44' W 118°17'3 4.7
2014-Nov-19 14:31N 33°45' W 118°13'1 1.4
2014-Nov-19 13:32N 33°46' W 118°13'3 2.4
2014-Nov-19 12:15N 33°44' W 118°12'4 6.1
2014-Nov-19 11:33N 33°44' W 118°17'0 0.3
2014-Nov-19 10:33N 33°44' W 118°17'0 0.0
2014-Nov-19 09:33N 33°44' W 118°17'0 0.0
2014-Nov-19 08:33N 33°44' W 118°17'0 0.3
2014-Nov-19 07:33N 33°44' W 118°17'3 3.5
2014-Nov-19 06:34N 33°46' W 118°13'0 0.0
2014-Nov-19 05:33N 33°46' W 118°13'1 0.5
2014-Nov-19 04:33N 33°46' W 118°13'3 3.0
2014-Nov-19 03:33N 33°44' W 118°11'  

Dump ship's entire track history